Time;durP1;ratioP1;P1;durP2;ratioP2;P2;SDS_P1;SDS_P2;PMS_P1;PMS_P2;Temp;Humidity;BMP_temperature;BMP_pressure;BME280_temperature;BME280_humidity;BME280_pressure;Samples;Min_cycle;Max_cycle;Signal;HPM_P1;HPM_P2
2023/05/26 00:01:36;;;;;;;9.23;1.50;;;9.70;99.90;;;;;;5054310;28;20048;-49
2023/05/26 00:04:02;;;;;;;10.30;1.75;;;9.60;99.90;;;;;;5054022;28;20454;-47
2023/05/26 00:06:31;;;;;;;4.40;1.08;;;9.60;99.90;;;;;;5054814;28;20060;-49
2023/05/26 00:08:57;;;;;;;9.02;1.55;;;9.60;99.90;;;;;;5054031;28;20540;-49
2023/05/26 00:11:22;;;;;;;8.93;2.38;;;9.60;99.90;;;;;;5054320;28;20045;-49
2023/05/26 00:13:48;;;;;;;7.10;1.40;;;9.60;99.90;;;;;;5054025;28;20053;-50
2023/05/26 00:16:14;;;;;;;10.80;1.73;;;9.60;99.90;;;;;;5054339;28;20063;-48
2023/05/26 00:18:40;;;;;;;8.83;1.30;;;9.60;99.90;;;;;;5052896;28;20103;-48
2023/05/26 00:21:06;;;;;;;7.83;1.63;;;9.60;99.90;;;;;;5036509;28;20283;-49
2023/05/26 00:23:31;;;;;;;8.70;1.80;;;9.50;99.90;;;;;;5052688;28;20146;-48
2023/05/26 00:25:57;;;;;;;8.97;1.57;;;9.50;99.90;;;;;;5053940;28;20096;-49
2023/05/26 00:28:23;;;;;;;7.20;1.33;;;9.40;99.90;;;;;;5053988;28;20036;-48
2023/05/26 00:30:48;;;;;;;6.03;1.97;;;9.40;99.90;;;;;;5052640;28;20545;-48
2023/05/26 00:33:14;;;;;;;8.53;1.40;;;9.40;99.90;;;;;;5053849;28;20181;-49
2023/05/26 00:35:40;;;;;;;11.10;1.77;;;9.30;99.90;;;;;;5054614;28;20049;-49
2023/05/26 00:38:07;;;;;;;8.03;1.40;;;9.30;99.90;;;;;;5054172;28;20044;-48
2023/05/26 00:40:32;;;;;;;8.10;1.45;;;9.30;99.90;;;;;;5053678;28;20131;-48
2023/05/26 00:42:58;;;;;;;7.13;1.07;;;9.30;99.90;;;;;;5053592;28;20132;-48
2023/05/26 00:45:24;;;;;;;6.38;1.80;;;9.30;99.90;;;;;;5053688;28;20052;-49
2023/05/26 00:47:51;;;;;;;11.53;1.63;;;9.20;99.90;;;;;;5053417;28;20045;-50
2023/05/26 00:50:17;;;;;;;6.55;1.60;;;9.20;99.90;;;;;;5053647;28;20049;-49
2023/05/26 00:52:44;;;;;;;11.32;1.75;;;9.20;99.90;;;;;;5053864;28;20431;-49
2023/05/26 00:55:10;;;;;;;;;;;9.20;99.90;;;;;;5053797;28;20052;-48
2023/05/26 00:57:36;;;;;;;10.05;1.90;;;9.10;99.90;;;;;;5052959;28;19982;-48
2023/05/26 01:00:03;;;;;;;5.57;1.67;;;9.00;99.90;;;;;;5053458;28;20063;-48
2023/05/26 01:02:29;;;;;;;7.35;1.45;;;9.00;99.90;;;;;;5051856;28;20408;-49
2023/05/26 01:04:55;;;;;;;7.15;1.80;;;9.00;99.90;;;;;;5053475;28;20052;-49
2023/05/26 01:07:22;;;;;;;6.97;1.37;;;9.00;99.90;;;;;;5053395;28;20045;-49
2023/05/26 01:09:49;;;;;;;9.15;1.45;;;8.90;99.90;;;;;;5053455;28;20420;-49
2023/05/26 01:12:25;;;;;;;6.13;1.55;;;8.90;99.90;;;;;;5053179;28;20500;-49
2023/05/26 01:15:14;;;;;;;9.95;1.40;;;8.90;99.90;;;;;;5053132;28;20092;-48
2023/05/26 01:17:44;;;;;;;7.57;1.60;;;8.90;99.90;;;;;;5052817;28;20084;-49
2023/05/26 01:20:40;;;;;;;6.78;1.25;;;8.90;99.90;;;;;;5052447;28;20053;-49
2023/05/26 01:23:26;;;;;;;5.22;1.13;;;8.90;99.90;;;;;;5049713;28;20060;-48
2023/05/26 01:26:25;;;;;;;6.50;1.10;;;8.90;99.90;;;;;;5053706;28;20095;-48
2023/05/26 01:28:55;;;;;;;8.52;1.27;;;8.90;99.90;;;;;;5053189;28;20049;-49
2023/05/26 01:31:20;;;;;;;6.28;1.17;;;8.80;99.90;;;;;;5052012;28;20401;-48
2023/05/26 01:33:46;;;;;;;7.38;1.77;;;8.70;99.90;;;;;;5052992;28;20049;-49
2023/05/26 01:36:12;;;;;;;6.37;1.63;;;8.70;99.90;;;;;;5053199;28;20055;-50
2023/05/26 01:38:39;;;;;;;10.27;1.70;;;8.70;99.90;;;;;;5053104;28;20061;-49
2023/05/26 01:41:18;;;;;;;6.50;1.42;;;8.60;99.90;;;;;;5053164;28;20103;-48
2023/05/26 01:43:53;;;;;;;10.40;1.88;;;8.70;99.90;;;;;;5053068;28;20037;-48
2023/05/26 01:46:45;;;;;;;8.18;2.28;;;8.60;99.90;;;;;;5053042;28;20049;-48
2023/05/26 01:49:13;;;;;;;4.50;0.93;;;8.60;99.90;;;;;;5053070;28;20057;-49
2023/05/26 01:51:49;;;;;;;3.95;1.58;;;8.60;99.90;;;;;;5052958;28;20045;-48
2023/05/26 01:54:18;;;;;;;5.27;0.90;;;8.60;99.90;;;;;;5052974;28;20530;-49
2023/05/26 01:56:45;;;;;;;7.78;1.98;;;8.70;99.90;;;;;;5051761;28;20287;-48
2023/05/26 01:59:11;;;;;;;8.00;1.33;;;8.70;99.90;;;;;;5052981;28;20048;-48
2023/05/26 02:01:37;;;;;;;6.38;2.38;;;8.70;99.90;;;;;;5052856;28;20049;-49
2023/05/26 02:04:03;;;;;;;6.93;1.00;;;8.70;99.90;;;;;;5052896;28;20047;-48
2023/05/26 02:06:29;;;;;;;7.43;1.52;;;8.70;99.90;;;;;;5052985;28;20040;-48
2023/05/26 02:08:55;;;;;;;9.60;2.23;;;8.70;99.90;;;;;;5052934;28;20396;-48
2023/05/26 02:11:21;;;;;;;10.20;2.97;;;8.70;99.90;;;;;;5055761;28;20048;-48
2023/05/26 02:13:47;;;;;;;7.93;1.40;;;8.70;99.90;;;;;;5056330;28;20183;-48
2023/05/26 02:16:13;;;;;;;8.13;2.07;;;8.70;99.90;;;;;;5054948;28;20303;-48
2023/05/26 02:18:39;;;;;;;6.70;1.40;;;8.80;99.90;;;;;;5056344;28;20107;-48
2023/05/26 02:21:05;;;;;;;8.40;2.00;;;8.80;99.90;;;;;;5056114;28;20052;-50
2023/05/26 02:23:31;;;;;;;8.87;1.53;;;8.80;99.90;;;;;;5054794;28;20049;-49
2023/05/26 02:25:57;;;;;;;9.15;1.52;;;8.80;99.90;;;;;;5054995;28;20041;-48
2023/05/26 02:28:22;;;;;;;8.10;1.57;;;8.80;99.90;;;;;;5056186;28;20075;-49
2023/05/26 02:30:48;;;;;;;4.17;1.17;;;8.80;99.90;;;;;;5056313;28;20045;-48
2023/05/26 02:33:14;;;;;;;10.43;1.27;;;8.80;99.90;;;;;;5055894;28;20045;-49
2023/05/26 02:35:39;;;;;;;6.30;1.20;;;8.80;99.90;;;;;;5055835;28;20052;-48
2023/05/26 02:38:05;;;;;;;6.83;1.80;;;8.80;99.90;;;;;;5055927;28;20056;-49
2023/05/26 02:40:31;;;;;;;9.77;1.73;;;8.80;99.90;;;;;;5055655;28;20047;-48
2023/05/26 02:42:56;;;;;;;8.90;1.17;;;8.80;99.90;;;;;;5055788;28;20037;-49
2023/05/26 02:45:22;;;;;;;6.80;1.63;;;8.80;99.90;;;;;;5054921;28;20045;-49
2023/05/26 02:47:48;;;;;;;12.90;2.57;;;8.80;99.90;;;;;;5055837;28;20041;-49
2023/05/26 02:50:13;;;;;;;5.83;1.20;;;8.80;99.90;;;;;;5055680;28;20571;-49
2023/05/26 02:52:39;;;;;;;7.63;1.50;;;8.80;99.90;;;;;;5055504;28;20542;-48
2023/05/26 02:55:08;;;;;;;5.67;1.63;;;8.80;99.90;;;;;;5054432;28;20056;-49
2023/05/26 02:57:33;;;;;;;5.10;1.05;;;8.80;99.90;;;;;;5055607;28;20050;-50
2023/05/26 02:59:59;;;;;;;7.60;1.43;;;8.80;99.90;;;;;;5038143;28;20124;-51
2023/05/26 03:02:25;;;;;;;9.90;1.85;;;8.80;99.90;;;;;;5055474;28;20048;-49
2023/05/26 03:04:51;;;;;;;7.23;1.10;;;8.90;99.90;;;;;;5055276;28;20475;-50
2023/05/26 03:07:16;;;;;;;6.57;1.37;;;8.90;99.90;;;;;;5055403;28;20071;-50
2023/05/26 03:09:42;;;;;;;7.20;1.30;;;8.90;99.90;;;;;;5055254;28;20055;-49
2023/05/26 03:12:08;;;;;;;9.47;1.67;;;8.90;99.90;;;;;;5054326;28;20079;-50
2023/05/26 03:14:34;;;;;;;5.97;1.70;;;8.80;99.90;;;;;;5055055;28;20049;-52
2023/05/26 03:17:00;;;;;;;5.72;1.42;;;8.90;99.90;;;;;;5055523;28;20052;-50
2023/05/26 03:19:26;;;;;;;8.32;1.25;;;8.80;99.90;;;;;;5055235;28;20044;-48
2023/05/26 03:21:51;;;;;;;5.03;1.03;;;8.80;99.90;;;;;;5054595;28;20041;-49
2023/05/26 03:24:18;;;;;;;10.63;1.30;;;8.80;99.90;;;;;;5053915;28;20083;-49
2023/05/26 03:26:43;;;;;;;4.90;0.85;;;8.80;99.90;;;;;;5054496;28;20132;-50
2023/05/26 03:29:09;;;;;;;7.27;1.23;;;8.80;99.90;;;;;;5054967;28;20132;-51
2023/05/26 03:31:36;;;;;;;9.17;1.70;;;8.80;99.90;;;;;;5055215;28;20199;-49
2023/05/26 03:34:02;;;;;;;;;;;8.80;99.90;;;;;;5055323;28;20045;-52
2023/05/26 03:36:28;;;;;;;7.80;1.27;;;8.80;99.90;;;;;;5054761;28;19948;-50
2023/05/26 03:38:53;;;;;;;6.97;1.52;;;8.80;99.90;;;;;;5053631;28;20084;-48
2023/05/26 03:41:20;;;;;;;8.10;1.27;;;8.80;99.90;;;;;;5054912;28;20080;-48
2023/05/26 03:43:45;;;;;;;9.43;1.27;;;8.80;99.90;;;;;;5054965;28;20057;-48
2023/05/26 03:46:11;;;;;;;8.07;1.60;;;8.80;99.90;;;;;;5054645;28;20041;-48
2023/05/26 03:48:36;;;;;;;4.57;1.10;;;8.80;99.90;;;;;;5054651;28;20283;-48
2023/05/26 03:51:02;;;;;;;7.77;1.70;;;8.80;99.90;;;;;;5054475;28;20045;-48
2023/05/26 03:53:28;;;;;;;6.40;1.00;;;8.70;99.90;;;;;;5054439;28;20045;-48
2023/05/26 03:55:54;;;;;;;8.67;1.27;;;8.70;99.90;;;;;;5054975;28;20114;-48
2023/05/26 03:58:19;;;;;;;6.27;1.20;;;8.70;99.90;;;;;;5053495;28;20078;-49
2023/05/26 04:00:46;;;;;;;8.83;1.83;;;8.70;99.90;;;;;;5054313;28;20060;-49
2023/05/26 04:03:11;;;;;;;9.10;1.52;;;8.70;99.90;;;;;;5054330;28;20044;-48
2023/05/26 04:05:38;;;;;;;7.10;1.87;;;8.70;99.90;;;;;;5054329;28;20109;-48
2023/05/26 04:08:04;;;;;;;8.75;1.60;;;8.70;99.90;;;;;;5053995;28;20049;-50
2023/05/26 04:10:29;;;;;;;5.87;1.27;;;8.70;99.90;;;;;;5053571;28;20048;-48
2023/05/26 04:12:55;;;;;;;5.67;1.17;;;8.80;99.90;;;;;;5054172;28;20068;-48
2023/05/26 04:15:21;;;;;;;5.87;1.30;;;8.80;99.90;;;;;;5054109;28;20494;-48
2023/05/26 04:17:46;;;;;;;8.60;1.73;;;8.80;99.90;;;;;;5054039;28;20053;-48
2023/05/26 04:20:12;;;;;;;5.83;1.20;;;8.80;99.90;;;;;;5036438;28;20059;-48
2023/05/26 04:22:38;;;;;;;6.67;1.30;;;8.80;99.90;;;;;;5053877;28;20431;-48
2023/05/26 04:25:04;;;;;;;8.02;2.05;;;8.90;99.90;;;;;;5054388;28;20051;-48
2023/05/26 04:27:30;;;;;;;7.65;2.15;;;8.90;99.90;;;;;;5053122;28;20051;-49
2023/05/26 04:29:58;;;;;;;6.90;1.30;;;9.00;99.90;;;;;;5053787;28;20400;-49
2023/05/26 04:32:24;;;;;;;5.55;1.40;;;9.00;99.90;;;;;;5053040;28;20272;-49
2023/05/26 04:34:50;;;;;;;7.90;1.27;;;9.00;99.90;;;;;;5053766;28;20056;-48
2023/05/26 04:37:16;;;;;;;6.97;1.20;;;9.00;99.90;;;;;;5052602;28;20052;-49
2023/05/26 04:39:42;;;;;;;8.65;1.95;;;9.00;99.90;;;;;;5053769;28;20067;-49
2023/05/26 04:42:08;;;;;;;6.70;1.60;;;9.00;99.90;;;;;;5053773;28;20472;-49
2023/05/26 04:44:36;;;;;;;9.33;2.13;;;9.10;99.90;;;;;;5053715;28;20491;-49
2023/05/26 04:47:03;;;;;;;11.15;1.55;;;9.10;99.90;;;;;;5053665;28;20057;-48
2023/05/26 04:49:29;;;;;;;7.05;1.27;;;9.10;99.90;;;;;;5053485;28;20488;-48
2023/05/26 04:51:59;;;;;;;5.38;1.23;;;9.10;99.90;;;;;;5052454;28;20045;-49
2023/05/26 04:54:25;;;;;;;6.65;1.23;;;9.10;99.90;;;;;;5053647;28;20088;-48
2023/05/26 04:56:53;;;;;;;7.10;1.60;;;9.20;99.90;;;;;;5053554;28;20056;-49
2023/05/26 04:59:21;;;;;;;5.80;1.38;;;9.20;99.90;;;;;;5053474;28;20052;-49
2023/05/26 05:01:47;;;;;;;7.82;1.63;;;9.30;99.90;;;;;;5053322;28;20408;-48
2023/05/26 05:04:13;;;;;;;4.20;1.33;;;9.30;99.90;;;;;;5053386;28;20071;-48
2023/05/26 05:06:39;;;;;;;7.57;1.30;;;9.40;99.90;;;;;;5052268;28;20084;-48
2023/05/26 05:09:05;;;;;;;9.43;1.57;;;9.50;99.90;;;;;;5053393;28;20085;-48
2023/05/26 05:11:31;;;;;;;5.23;1.60;;;9.60;99.90;;;;;;5053416;28;20049;-47
2023/05/26 05:13:57;;;;;;;8.07;1.48;;;9.70;99.90;;;;;;5053633;28;20052;-49
2023/05/26 05:16:23;;;;;;;10.40;1.40;;;9.80;99.90;;;;;;5053111;28;20514;-48
2023/05/26 05:18:49;;;;;;;8.57;1.63;;;9.90;99.90;;;;;;5053126;28;20053;-48
2023/05/26 05:21:14;;;;;;;6.77;1.17;;;10.00;99.90;;;;;;5053087;28;20767;-48
2023/05/26 05:23:40;;;;;;;9.43;1.87;;;10.30;99.90;;;;;;5053245;28;20655;-48
2023/05/26 05:26:06;;;;;;;11.77;1.87;;;10.50;99.90;;;;;;5053448;28;20045;-48
2023/05/26 05:28:31;;;;;;;4.90;1.23;;;10.60;99.90;;;;;;5053176;28;20459;-48
2023/05/26 05:30:57;;;;;;;12.30;1.47;;;10.80;99.90;;;;;;5053286;28;20048;-48
2023/05/26 05:33:23;;;;;;;8.60;1.53;;;10.80;99.90;;;;;;5052050;28;20503;-48
2023/05/26 05:35:48;;;;;;;7.30;0.90;;;11.00;99.90;;;;;;5052957;28;20053;-49
2023/05/26 05:38:14;;;;;;;8.27;1.23;;;11.00;99.90;;;;;;5053300;28;20127;-46
2023/05/26 05:40:40;;;;;;;4.90;1.37;;;11.10;99.90;;;;;;5052214;28;20045;-46
2023/05/26 05:43:05;;;;;;;6.57;1.17;;;11.10;99.90;;;;;;5052973;28;20044;-46
2023/05/26 05:45:31;;;;;;;7.07;1.30;;;11.10;99.90;;;;;;5056760;28;20056;-46
2023/05/26 05:47:57;;;;;;;7.23;1.23;;;11.10;99.90;;;;;;5056745;28;20084;-45
2023/05/26 05:50:23;;;;;;;6.00;1.30;;;11.10;99.90;;;;;;5056611;28;20045;-45
2023/05/26 05:52:48;;;;;;;11.75;2.75;;;11.20;99.90;;;;;;5056814;28;20049;-46
2023/05/26 05:55:15;;;;;;;6.30;1.30;;;11.30;99.90;;;;;;5056753;28;20512;-46
2023/05/26 05:57:41;;;;;;;5.35;1.08;;;11.30;99.90;;;;;;5056714;28;20057;-46
2023/05/26 06:00:09;;;;;;;5.00;1.10;;;11.40;99.90;;;;;;5056635;28;20041;-45
2023/05/26 06:02:36;;;;;;;7.32;1.40;;;11.50;99.90;;;;;;5056499;28;20136;-47
2023/05/26 06:05:02;;;;;;;8.10;1.73;;;11.60;99.90;;;;;;5055184;28;20060;-47
2023/05/26 06:07:27;;;;;;;7.60;1.20;;;11.70;99.90;;;;;;5056373;28;20064;-46
2023/05/26 06:09:53;;;;;;;5.20;0.90;;;11.70;99.90;;;;;;5056453;28;20045;-46
2023/05/26 06:12:19;;;;;;;7.30;1.00;;;11.70;99.90;;;;;;5056396;28;20099;-47
2023/05/26 06:14:45;;;;;;;7.30;1.38;;;11.70;99.90;;;;;;5056305;28;20103;-47
2023/05/26 06:17:11;;;;;;;9.37;1.70;;;11.70;99.90;;;;;;5056537;28;20057;-45
2023/05/26 06:19:36;;;;;;;8.87;1.30;;;11.80;99.90;;;;;;5056125;28;20488;-46
2023/05/26 06:22:02;;;;;;;6.90;1.33;;;11.80;99.90;;;;;;5056109;28;20085;-46
2023/05/26 06:24:28;;;;;;;6.57;1.10;;;11.90;99.90;;;;;;5055091;28;20099;-47
2023/05/26 06:26:53;;;;;;;8.97;1.70;;;11.90;99.90;;;;;;5056266;28;20469;-47
2023/05/26 06:29:19;;;;;;;7.37;1.53;;;12.00;99.90;;;;;;5056020;28;20127;-46
2023/05/26 06:31:45;;;;;;;6.47;1.03;;;12.00;99.90;;;;;;5054761;28;20397;-47
2023/05/26 06:34:11;;;;;;;5.90;1.33;;;12.10;99.90;;;;;;5055877;28;20400;-47
2023/05/26 06:36:36;;;;;;;7.27;1.23;;;12.20;99.90;;;;;;5055993;28;20041;-46
2023/05/26 06:39:02;;;;;;;8.57;1.40;;;12.20;99.90;;;;;;5055286;28;20386;-46
2023/05/26 06:41:28;;;;;;;5.87;1.43;;;12.30;99.90;;;;;;5055163;28;20388;-47
2023/05/26 06:43:55;;;;;;;5.53;0.87;;;12.30;99.90;;;;;;5055979;28;20045;-47
2023/05/26 06:46:20;;;;;;;6.45;2.13;;;12.40;99.90;;;;;;5055603;28;20276;-47
2023/05/26 06:48:46;;;;;;;6.20;1.03;;;12.40;99.90;;;;;;5055494;28;20401;-45
2023/05/26 06:51:12;;;;;;;7.50;1.10;;;12.50;99.90;;;;;;5055730;28;20392;-47
2023/05/26 06:53:38;;;;;;;4.97;1.40;;;12.50;99.90;;;;;;5054679;28;20053;-46
2023/05/26 06:56:06;;;;;;;5.97;1.00;;;12.50;99.90;;;;;;5054613;28;20084;-46
2023/05/26 06:58:32;;;;;;;6.70;1.02;;;12.50;99.90;;;;;;5055513;28;20045;-46
2023/05/26 07:00:59;;;;;;;5.57;1.40;;;12.50;99.90;;;;;;5055426;28;20048;-46
2023/05/26 07:03:26;;;;;;;7.80;1.60;;;12.60;99.90;;;;;;5055236;28;20036;-46
2023/05/26 07:05:52;;;;;;;3.40;0.85;;;12.70;99.90;;;;;;5055663;28;20131;-47
2023/05/26 07:08:18;;;;;;;7.32;1.45;;;12.80;99.90;;;;;;5055386;28;20056;-47
2023/05/26 07:10:44;;;;;;;5.17;1.20;;;13.00;99.90;;;;;;5055329;28;20510;-45
2023/05/26 07:13:09;;;;;;;5.70;1.20;;;13.00;99.90;;;;;;5055335;28;20037;-49
2023/05/26 07:15:35;;;;;;;4.90;0.80;;;13.00;99.90;;;;;;5053649;28;20076;-47
2023/05/26 07:18:01;;;;;;;5.63;0.97;;;13.00;99.90;;;;;;5055058;28;20048;-46
2023/05/26 07:20:26;;;;;;;7.43;1.47;;;13.10;99.90;;;;;;5055467;28;20045;-46
2023/05/26 07:22:52;;;;;;;5.73;0.90;;;13.20;99.90;;;;;;5055110;28;20037;-47
2023/05/26 07:25:18;;;;;;;5.03;1.00;;;13.50;99.90;;;;;;5055278;28;20431;-47
2023/05/26 07:27:43;;;;;;;5.00;1.07;;;13.60;99.90;;;;;;5054072;28;20056;-47
2023/05/26 07:30:10;;;;;;;3.57;1.00;;;13.70;99.90;;;;;;5053902;28;20045;-46
2023/05/26 07:32:35;;;;;;;4.32;0.82;;;13.70;99.90;;;;;;5054593;28;20048;-46
2023/05/26 07:35:01;;;;;;;4.83;1.00;;;13.70;99.90;;;;;;5053922;28;20040;-46
2023/05/26 07:37:27;;;;;;;5.82;1.25;;;13.60;99.90;;;;;;5054835;28;20049;-48
2023/05/26 07:39:52;;;;;;;5.47;1.27;;;13.50;99.90;;;;;;5054792;28;20538;-46
2023/05/26 07:42:18;;;;;;;6.07;1.00;;;13.50;99.90;;;;;;5053677;28;20391;-47
2023/05/26 07:44:44;;;;;;;5.03;1.03;;;13.40;99.90;;;;;;5053629;28;20447;-48
2023/05/26 07:47:10;;;;;;;5.97;1.17;;;13.40;99.90;;;;;;5054682;28;20103;-47
2023/05/26 07:49:35;;;;;;;5.57;1.53;;;13.40;99.90;;;;;;5053912;28;20657;-47
2023/05/26 07:52:01;;;;;;;5.07;1.70;;;13.30;99.90;;;;;;5037484;28;20059;-47
2023/05/26 07:54:26;;;;;;;5.20;1.20;;;13.30;99.90;;;;;;5054578;28;20044;-48
2023/05/26 07:56:52;;;;;;;7.10;1.30;;;13.30;99.90;;;;;;5053601;28;20394;-47
2023/05/26 07:59:18;;;;;;;5.73;0.80;;;13.30;99.90;;;;;;5054484;28;20044;-48
2023/05/26 08:01:44;;;;;;;5.63;1.37;;;13.30;99.90;;;;;;5054163;28;20045;-48
2023/05/26 08:04:10;;;;;;;4.63;1.10;;;13.30;99.90;;;;;;5054389;28;20041;-47
2023/05/26 08:06:35;;;;;;;8.83;1.00;;;13.30;99.90;;;;;;5054368;28;20048;-46
2023/05/26 08:09:02;;;;;;;6.17;1.10;;;13.30;99.90;;;;;;5054671;28;20766;-47
2023/05/26 08:11:28;;;;;;;;;;;13.30;99.90;;;;;;5054619;28;20053;-47
2023/05/26 08:13:53;;;;;;;5.18;1.05;;;13.40;99.90;;;;;;5053937;28;19928;-47
2023/05/26 08:16:20;;;;;;;6.33;1.50;;;13.30;99.90;;;;;;5052623;28;20061;-47
2023/05/26 08:18:46;;;;;;;2.53;0.90;;;13.30;99.90;;;;;;5054105;28;20055;-48
2023/05/26 08:21:11;;;;;;;4.40;1.10;;;13.30;99.90;;;;;;5054230;28;20389;-47
2023/05/26 08:23:38;;;;;;;4.55;0.80;;;13.30;99.90;;;;;;5053938;28;20045;-46
2023/05/26 08:26:05;;;;;;;7.50;1.30;;;13.20;99.90;;;;;;5053985;28;20060;-47
2023/05/26 08:28:31;;;;;;;7.03;1.15;;;13.30;99.90;;;;;;5053854;28;20107;-47
2023/05/26 08:30:56;;;;;;;8.17;1.17;;;13.30;99.90;;;;;;5053754;28;20496;-46
2023/05/26 08:33:22;;;;;;;4.33;1.20;;;13.40;99.90;;;;;;5053840;28;20365;-47
2023/05/26 08:35:47;;;;;;;6.57;1.20;;;13.40;99.90;;;;;;5053944;28;20404;-48
2023/05/26 08:38:13;;;;;;;4.83;0.97;;;13.40;99.90;;;;;;5053781;28;20135;-47
2023/05/26 08:40:39;;;;;;;4.63;1.10;;;13.40;99.90;;;;;;5053519;28;20099;-47
2023/05/26 08:43:11;;;;;;;2.80;1.00;;;13.40;99.90;;;;;;5053587;28;20055;-49
2023/05/26 08:45:38;;;;;;;4.30;1.10;;;13.40;99.90;;;;;;5053431;28;20131;-47
2023/05/26 08:48:08;;;;;;;6.75;1.10;;;13.50;99.90;;;;;;5053680;28;20053;-46
2023/05/26 08:50:34;;;;;;;2.80;1.00;;;13.50;99.90;;;;;;5053893;28;20099;-47
2023/05/26 08:53:00;;;;;;;5.28;1.25;;;13.50;99.90;;;;;;5052324;28;20049;-47
2023/05/26 08:55:27;;;;;;;4.93;1.02;;;13.50;99.90;;;;;;5053654;28;20048;-47
2023/05/26 08:57:56;;;;;;;6.82;1.20;;;13.60;99.90;;;;;;5053393;28;20049;-47
2023/05/26 09:00:21;;;;;;;4.65;1.10;;;13.60;99.90;;;;;;5052495;28;20128;-47
2023/05/26 09:02:47;;;;;;;5.53;1.40;;;13.60;99.90;;;;;;5053306;28;20135;-47
2023/05/26 09:05:14;;;;;;;6.53;1.88;;;13.60;99.90;;;;;;5053632;28;20049;-48
2023/05/26 09:07:39;;;;;;;5.22;0.82;;;13.60;99.90;;;;;;5053436;28;20132;-48
2023/05/26 09:10:21;;;;;;;4.60;1.20;;;13.60;99.90;;;;;;5053240;28;20080;-46
2023/05/26 09:12:47;;;;;;;5.43;1.00;;;13.70;99.90;;;;;;5053106;28;20322;-46
2023/05/26 09:15:19;;;;;;;4.07;0.95;;;13.70;99.90;;;;;;5053382;28;20080;-47
2023/05/26 09:17:47;;;;;;;8.05;1.08;;;13.60;99.90;;;;;;5053522;28;20060;-45
2023/05/26 09:20:13;;;;;;;5.40;0.90;;;13.50;99.90;;;;;;5056464;28;20049;-48
2023/05/26 09:22:38;;;;;;;7.28;1.50;;;13.50;99.90;;;;;;5057188;28;20618;-46
2023/05/26 09:25:04;;;;;;;10.10;1.37;;;13.50;99.90;;;;;;5057214;28;20091;-47
2023/05/26 09:27:30;;;;;;;7.65;1.13;;;13.50;99.90;;;;;;5057241;28;20052;-45
2023/05/26 09:30:00;;;;;;;8.20;1.07;;;13.50;99.90;;;;;;5057247;28;20045;-46
2023/05/26 09:32:27;;;;;;;5.82;1.65;;;13.50;99.90;;;;;;5057103;28;20087;-46
2023/05/26 09:34:58;;;;;;;10.15;1.40;;;13.50;99.90;;;;;;5057065;28;20049;-46
2023/05/26 09:37:28;;;;;;;10.32;1.27;;;13.50;99.90;;;;;;5056226;28;20045;-46
2023/05/26 09:39:55;;;;;;;8.85;1.50;;;13.50;99.90;;;;;;5056811;28;20049;-47
2023/05/26 09:42:21;;;;;;;4.53;0.80;;;13.40;99.90;;;;;;5056894;28;20484;-48
2023/05/26 09:44:49;;;;;;;5.32;1.73;;;13.40;99.90;;;;;;5056997;28;20049;-46
2023/05/26 09:47:22;;;;;;;5.88;1.33;;;13.40;99.90;;;;;;5056975;28;20133;-47
2023/05/26 09:49:47;;;;;;;5.70;1.25;;;13.40;99.90;;;;;;5056081;28;20044;-47
2023/05/26 09:52:13;;;;;;;4.60;1.13;;;13.50;99.90;;;;;;5056722;28;20391;-50
2023/05/26 09:54:40;;;;;;;5.40;1.10;;;13.50;99.90;;;;;;5056853;28;20107;-46
2023/05/26 09:57:10;;;;;;;4.97;0.93;;;13.60;99.90;;;;;;5056850;28;20049;-47
2023/05/26 09:59:40;;;;;;;6.63;1.42;;;13.60;99.90;;;;;;5056950;28;20049;-47
2023/05/26 10:02:20;;;;;;;7.95;1.35;;;13.70;99.90;;;;;;5056536;28;20510;-49
2023/05/26 10:04:51;;;;;;;6.00;1.40;;;13.80;99.90;;;;;;5055417;28;20136;-47
2023/05/26 10:07:20;;;;;;;5.93;0.90;;;13.80;99.90;;;;;;5056863;28;20056;-48
2023/05/26 10:09:50;;;;;;;5.35;1.27;;;13.90;99.90;;;;;;5056471;28;20045;-47
2023/05/26 10:12:19;;;;;;;4.90;1.00;;;14.00;99.90;;;;;;5056526;28;20116;-47
2023/05/26 10:14:46;;;;;;;8.68;1.63;;;14.10;99.90;;;;;;5056383;28;20056;-47
2023/05/26 10:17:12;;;;;;;4.97;1.10;;;14.20;99.90;;;;;;5055368;28;20477;-46
2023/05/26 10:19:37;;;;;;;6.70;1.15;;;14.30;99.90;;;;;;5056065;28;20105;-47
2023/05/26 10:22:10;;;;;;;4.87;1.37;;;14.40;99.90;;;;;;5056230;28;20044;-47
2023/05/26 10:24:44;;;;;;;4.82;0.80;;;14.50;99.90;;;;;;5056247;28;20056;-47
2023/05/26 10:27:36;;;;;;;7.75;1.63;;;14.40;99.90;;;;;;5056190;28;20056;-47
2023/05/26 10:30:11;;;;;;;5.65;1.17;;;14.50;99.90;;;;;;5055022;28;20049;-46
2023/05/26 10:32:52;;;;;;;3.63;0.93;;;14.60;99.90;;;;;;5056277;28;20045;-48
2023/05/26 10:35:26;;;;;;;9.48;1.13;;;14.70;99.90;;;;;;5056135;28;20056;-47
2023/05/26 10:38:01;;;;;;;5.60;1.20;;;14.80;99.90;;;;;;5054916;28;20124;-47
2023/05/26 10:40:29;;;;;;;8.55;1.70;;;14.80;99.90;;;;;;5055564;28;20056;-46
2023/05/26 10:43:10;;;;;;;4.60;1.00;;;14.80;99.90;;;;;;5056106;28;20044;-47
2023/05/26 10:45:52;;;;;;;4.72;1.08;;;14.80;99.90;;;;;;5055840;28;20053;-47
2023/05/26 10:48:18;;;;;;;3.75;1.15;;;14.80;99.90;;;;;;5055865;28;20084;-46
2023/05/26 10:50:58;;;;;;;13.15;1.80;;;14.80;99.90;;;;;;5055656;28;20049;-48
2023/05/26 10:53:25;;;;;;;7.25;0.95;;;14.80;99.90;;;;;;5056076;28;20091;-47
2023/05/26 10:55:55;;;;;;;4.97;1.17;;;14.90;99.90;;;;;;5055530;28;20072;-47
2023/05/26 10:58:34;;;;;;;7.30;1.25;;;15.00;99.90;;;;;;5055493;28;20052;-45
2023/05/26 11:01:02;;;;;;;7.45;1.25;;;15.10;99.90;;;;;;5054453;28;20053;-47
2023/05/26 11:03:37;;;;;;;3.58;1.05;;;15.20;99.90;;;;;;5055639;28;20099;-48
2023/05/26 11:06:04;;;;;;;7.75;1.50;;;15.40;99.90;;;;;;5055456;28;20049;-47
2023/05/26 11:08:49;;;;;;;6.57;1.75;;;15.50;99.90;;;;;;5055436;28;20088;-47
2023/05/26 11:11:28;;;;;;;5.95;1.45;;;15.70;99.90;;;;;;5055429;28;20060;-48
2023/05/26 11:14:06;;;;;;;5.60;1.63;;;15.80;99.90;;;;;;5055385;28;20124;-49
2023/05/26 11:16:37;;;;;;;6.75;1.30;;;15.80;99.90;;;;;;5055112;28;20119;-47
2023/05/26 11:19:06;;;;;;;4.40;1.30;;;15.70;99.90;;;;;;5055598;28;20447;-48
2023/05/26 11:21:33;;;;;;;6.25;1.38;;;15.60;99.90;;;;;;5055200;28;20123;-47
2023/05/26 11:24:00;;;;;;;7.40;1.73;;;15.50;99.90;;;;;;5054958;28;20503;-48
2023/05/26 11:26:30;;;;;;;8.00;1.48;;;15.50;99.90;;;;;;5055307;28;20439;-49
2023/05/26 11:28:56;;;;;;;4.78;1.13;;;15.60;99.90;;;;;;5054989;28;20041;-47
2023/05/26 11:31:25;;;;;;;6.75;1.02;;;15.80;99.90;;;;;;5055027;28;20105;-46
2023/05/26 11:33:52;;;;;;;4.50;0.93;;;15.90;99.90;;;;;;5055063;28;20055;-46
2023/05/26 11:36:19;;;;;;;4.68;1.63;;;16.00;99.90;;;;;;5053676;28;20466;-46
2023/05/26 11:38:50;;;;;;;5.97;1.45;;;15.90;99.90;;;;;;5054542;28;20059;-47
2023/05/26 11:41:15;;;;;;;6.57;1.33;;;15.70;99.90;;;;;;5054462;28;20045;-47
2023/05/26 11:43:44;;;;;;;7.68;1.40;;;15.70;99.90;;;;;;5054631;28;20045;-47
2023/05/26 11:46:13;;;;;;;7.72;1.65;;;15.80;99.90;;;;;;5054655;28;20091;-47
2023/05/26 11:48:40;;;;;;;6.30;1.20;;;16.00;99.90;;;;;;5054628;28;20056;-48
2023/05/26 11:51:24;;;;;;;7.30;1.13;;;16.10;99.90;;;;;;5054560;28;20088;-48
2023/05/26 11:53:54;;;;;;;5.53;1.65;;;16.10;99.90;;;;;;5054317;28;20498;-48
2023/05/26 11:56:20;;;;;;;5.45;1.50;;;15.90;99.90;;;;;;5054519;28;20124;-48
2023/05/26 11:58:47;;;;;;;7.10;1.25;;;15.70;99.90;;;;;;5054369;28;20052;-47
2023/05/26 12:01:14;;;;;;;5.90;1.10;;;15.60;99.90;;;;;;5054308;28;20047;-48
2023/05/26 12:03:41;;;;;;;;;;;15.50;99.90;;;;;;5054569;28;20041;-47
2023/05/26 12:06:19;;;;;;;5.80;1.20;;;15.60;99.90;;;;;;5054322;28;19928;-47
2023/05/26 12:09:21;;;;;;;4.93;1.23;;;15.80;99.90;;;;;;5054624;28;20045;-47
2023/05/26 12:11:49;;;;;;;5.32;1.33;;;15.90;99.90;;;;;;5053237;28;20074;-47
2023/05/26 12:14:15;;;;;;;5.65;1.10;;;15.80;99.90;;;;;;5053807;28;20049;-47
2023/05/26 12:16:52;;;;;;;5.93;1.55;;;15.80;99.90;;;;;;5052843;28;20084;-45
2023/05/26 12:19:21;;;;;;;4.65;1.33;;;15.90;99.90;;;;;;5054041;28;20088;-47
2023/05/26 12:21:50;;;;;;;7.43;1.20;;;15.90;99.90;;;;;;5053955;28;20481;-48
2023/05/26 12:24:33;;;;;;;5.78;1.27;;;15.80;99.90;;;;;;5053942;28;20040;-47
2023/05/26 12:27:09;;;;;;;3.70;0.93;;;15.70;99.90;;;;;;5053914;28;20055;-46
2023/05/26 12:29:37;;;;;;;6.22;1.10;;;15.50;99.90;;;;;;5053734;28;20471;-46
2023/05/26 12:32:05;;;;;;;7.15;1.52;;;15.30;99.90;;;;;;5053746;28;20481;-46
2023/05/26 12:34:31;;;;;;;9.15;1.17;;;15.20;99.90;;;;;;5053776;28;20126;-47
2023/05/26 12:36:57;;;;;;;4.38;0.95;;;15.30;99.90;;;;;;5053555;28;20484;-46
2023/05/26 12:39:23;;;;;;;7.97;1.40;;;15.40;99.90;;;;;;5053763;28;20116;-47
2023/05/26 12:41:48;;;;;;;6.60;1.83;;;15.40;99.90;;;;;;5053523;28;20077;-47
2023/05/26 12:44:15;;;;;;;6.43;1.53;;;15.40;99.90;;;;;;5052826;28;20279;-47
2023/05/26 12:46:44;;;;;;;10.10;1.85;;;15.40;99.90;;;;;;5053535;28;20291;-47
2023/05/26 12:49:10;;;;;;;9.63;1.92;;;15.40;99.90;;;;;;5053512;28;20045;-49
2023/05/26 12:51:40;;;;;;;7.22;1.80;;;15.40;99.90;;;;;;5053472;28;20052;-47
2023/05/26 12:54:08;;;;;;;4.78;1.15;;;15.40;99.90;;;;;;5052569;28;20477;-47